sensor_id;sensor_type;location;lat;lon;timestamp;pressure;altitude;pressure_sealevel;temperature;humidity
6032;BME280;3044;43.232;27.972;2023-02-10T00:01:09;45292.81;;;-143.84;71.68
6032;BME280;3044;43.232;27.972;2023-02-10T00:03:38;45313.75;;;-143.84;71.74
6032;BME280;3044;43.232;27.972;2023-02-10T00:06:07;45273.78;;;-143.84;72.06
6032;BME280;3044;43.232;27.972;2023-02-10T00:08:34;45290.91;;;-143.84;71.65
6032;BME280;3044;43.232;27.972;2023-02-10T00:11:03;45287.09;;;-143.84;71.31
6032;BME280;3044;43.232;27.972;2023-02-10T00:13:31;45285.19;;;-143.84;71.31
6032;BME280;3044;43.232;27.972;2023-02-10T00:16:00;45264.25;;;-143.84;71.22
6032;BME280;3044;43.232;27.972;2023-02-10T00:18:27;45289.00;;;-143.84;71.82
6032;BME280;3044;43.232;27.972;2023-02-10T00:20:56;45279.47;;;-143.84;71.56
6032;BME280;3044;43.232;27.972;2023-02-10T00:23:24;45304.25;;;-143.84;71.69
6032;BME280;3044;43.232;27.972;2023-02-10T00:25:51;45292.81;;;-143.84;71.60
6032;BME280;3044;43.232;27.972;2023-02-10T00:28:18;45250.91;;;-143.84;71.87
6032;BME280;3044;43.232;27.972;2023-02-10T00:30:45;45262.34;;;-143.84;71.88
6032;BME280;3044;43.232;27.972;2023-02-10T00:33:12;45279.47;;;-143.84;71.48
6032;BME280;3044;43.232;27.972;2023-02-10T00:35:39;45311.84;;;-143.84;71.28
6032;BME280;3044;43.232;27.972;2023-02-10T00:38:08;45304.25;;;-143.84;70.81
6032;BME280;3044;43.232;27.972;2023-02-10T00:40:35;45294.72;;;-143.84;70.91
6032;BME280;3044;43.232;27.972;2023-02-10T00:43:02;45269.97;;;-143.84;70.82
6032;BME280;3044;43.232;27.972;2023-02-10T00:45:29;45279.47;;;-143.84;70.93
6032;BME280;3044;43.232;27.972;2023-02-10T00:47:56;45292.81;;;-143.84;71.46
6032;BME280;3044;43.232;27.972;2023-02-10T00:50:23;45294.72;;;-143.84;71.62
6032;BME280;3044;43.232;27.972;2023-02-10T00:52:51;45266.16;;;-143.84;71.62
6032;BME280;3044;43.232;27.972;2023-02-10T00:55:19;45296.63;;;-143.84;71.48
6032;BME280;3044;43.232;27.972;2023-02-10T00:57:46;45258.53;;;-143.84;71.92
6032;BME280;3044;43.232;27.972;2023-02-10T01:02:41;45262.34;;;-143.84;71.48
6032;BME280;3044;43.232;27.972;2023-02-10T01:05:08;45298.53;;;-143.84;72.08
6032;BME280;3044;43.232;27.972;2023-02-10T01:07:36;45292.81;;;-143.84;71.87
6032;BME280;3044;43.232;27.972;2023-02-10T01:10:03;45296.63;;;-143.84;72.05
6032;BME280;3044;43.232;27.972;2023-02-10T01:12:32;45285.19;;;-143.84;71.78
6032;BME280;3044;43.232;27.972;2023-02-10T01:14:59;45277.56;;;-143.84;71.62
6032;BME280;3044;43.232;27.972;2023-02-10T01:17:26;45271.88;;;-143.84;71.40
6032;BME280;3044;43.232;27.972;2023-02-10T01:19:53;45262.34;;;-143.84;71.20
6032;BME280;3044;43.232;27.972;2023-02-10T01:22:21;45287.09;;;-143.84;71.36
6032;BME280;3044;43.232;27.972;2023-02-10T01:24:48;45283.28;;;-143.84;71.51
6032;BME280;3044;43.232;27.972;2023-02-10T01:27:15;45275.66;;;-143.84;71.71
6032;BME280;3044;43.232;27.972;2023-02-10T01:29:44;45283.28;;;-143.84;71.60
6032;BME280;3044;43.232;27.972;2023-02-10T01:32:11;45285.19;;;-143.84;71.45
6032;BME280;3044;43.232;27.972;2023-02-10T01:34:38;45277.56;;;-143.84;71.55
6032;BME280;3044;43.232;27.972;2023-02-10T01:37:05;45292.81;;;-143.84;71.72
6032;BME280;3044;43.232;27.972;2023-02-10T01:39:32;45285.19;;;-143.84;71.25
6032;BME280;3044;43.232;27.972;2023-02-10T01:42:00;45273.78;;;-143.84;71.22
6032;BME280;3044;43.232;27.972;2023-02-10T01:47:40;45252.81;;;-143.84;70.88
6032;BME280;3044;43.232;27.972;2023-02-10T01:50:07;45309.94;;;-143.84;70.88
6032;BME280;3044;43.232;27.972;2023-02-10T01:52:35;45268.06;;;-143.84;70.85
6032;BME280;3044;43.232;27.972;2023-02-10T01:55:04;45266.16;;;-143.84;71.04
6032;BME280;3044;43.232;27.972;2023-02-10T01:57:32;45254.72;;;-143.84;70.80
6032;BME280;3044;43.232;27.972;2023-02-10T02:00:02;45285.19;;;-143.84;70.44
6032;BME280;3044;43.232;27.972;2023-02-10T02:02:30;45287.09;;;-143.84;70.43
6032;BME280;3044;43.232;27.972;2023-02-10T02:05:04;45279.47;;;-143.84;70.35
6032;BME280;3044;43.232;27.972;2023-02-10T02:07:33;45258.53;;;-143.84;69.97
6032;BME280;3044;43.232;27.972;2023-02-10T02:10:04;45309.94;;;-143.84;69.04
6032;BME280;3044;43.232;27.972;2023-02-10T02:12:41;45273.78;;;-143.84;68.99
6032;BME280;3044;43.232;27.972;2023-02-10T02:15:15;45273.78;;;-143.84;68.99
6032;BME280;3044;43.232;27.972;2023-02-10T02:17:52;45281.38;;;-143.84;68.53
6032;BME280;3044;43.232;27.972;2023-02-10T02:27:17;45323.28;;;-143.84;68.62
6032;BME280;3044;43.232;27.972;2023-02-10T02:32:54;45287.09;;;-143.84;68.04
6032;BME280;3044;43.232;27.972;2023-02-10T02:35:26;45281.38;;;-143.84;67.95
6032;BME280;3044;43.232;27.972;2023-02-10T02:37:55;45260.44;;;-143.84;68.34
6032;BME280;3044;43.232;27.972;2023-02-10T02:40:22;45290.91;;;-143.84;68.47
6032;BME280;3044;43.232;27.972;2023-02-10T02:42:50;45304.25;;;-143.84;67.87
6032;BME280;3044;43.232;27.972;2023-02-10T02:45:19;45279.47;;;-143.84;67.52
6032;BME280;3044;43.232;27.972;2023-02-10T02:48:03;45315.66;;;-143.84;67.75
6032;BME280;3044;43.232;27.972;2023-02-10T02:50:35;45258.53;;;-143.84;68.89
6032;BME280;3044;43.232;27.972;2023-02-10T02:53:11;45287.09;;;-143.84;69.74
6032;BME280;3044;43.232;27.972;2023-02-10T02:55:51;45290.91;;;-143.84;69.97
6032;BME280;3044;43.232;27.972;2023-02-10T02:58:26;45264.25;;;-143.84;70.39
6032;BME280;3044;43.232;27.972;2023-02-10T03:00:58;45290.91;;;-143.84;70.39
6032;BME280;3044;43.232;27.972;2023-02-10T03:03:32;45279.47;;;-143.84;70.17
6032;BME280;3044;43.232;27.972;2023-02-10T03:05:59;45287.09;;;-143.84;69.79
6032;BME280;3044;43.232;27.972;2023-02-10T03:08:27;45311.84;;;-143.84;68.89
6032;BME280;3044;43.232;27.972;2023-02-10T03:10:55;45275.66;;;-143.84;69.01
6032;BME280;3044;43.232;27.972;2023-02-10T03:13:22;45271.88;;;-143.84;67.83
6032;BME280;3044;43.232;27.972;2023-02-10T03:15:49;45287.09;;;-143.84;68.25
6032;BME280;3044;43.232;27.972;2023-02-10T03:18:16;45289.00;;;-143.84;68.26
6032;BME280;3044;43.232;27.972;2023-02-10T03:20:45;45283.28;;;-143.84;68.04
6032;BME280;3044;43.232;27.972;2023-02-10T03:23:12;45277.56;;;-143.84;68.01
6032;BME280;3044;43.232;27.972;2023-02-10T03:25:39;45279.47;;;-143.84;68.12
6032;BME280;3044;43.232;27.972;2023-02-10T03:28:06;45308.03;;;-143.84;68.86
6032;BME280;3044;43.232;27.972;2023-02-10T03:30:34;45309.94;;;-143.84;68.93
6032;BME280;3044;43.232;27.972;2023-02-10T03:33:01;45289.00;;;-143.84;69.05
6032;BME280;3044;43.232;27.972;2023-02-10T03:35:28;45300.44;;;-143.84;69.52
6032;BME280;3044;43.232;27.972;2023-02-10T03:37:56;45283.28;;;-143.84;69.21
6032;BME280;3044;43.232;27.972;2023-02-10T03:40:23;45281.38;;;-143.84;69.32
6032;BME280;3044;43.232;27.972;2023-02-10T03:42:51;45281.38;;;-143.84;69.41
6032;BME280;3044;43.232;27.972;2023-02-10T03:45:18;45262.34;;;-143.84;68.98
6032;BME280;3044;43.232;27.972;2023-02-10T03:47:45;45289.00;;;-143.84;68.27
6032;BME280;3044;43.232;27.972;2023-02-10T03:50:14;45287.09;;;-143.84;67.64
6032;BME280;3044;43.232;27.972;2023-02-10T03:52:42;45262.34;;;-143.84;67.03
6032;BME280;3044;43.232;27.972;2023-02-10T03:55:10;45302.34;;;-143.84;66.13
6032;BME280;3044;43.232;27.972;2023-02-10T03:57:40;45269.97;;;-143.84;65.88
6032;BME280;3044;43.232;27.972;2023-02-10T04:00:08;45294.72;;;-143.84;65.57
6032;BME280;3044;43.232;27.972;2023-02-10T04:02:35;45283.28;;;-143.84;65.57
6032;BME280;3044;43.232;27.972;2023-02-10T04:05:03;45275.66;;;-143.84;64.94
6032;BME280;3044;43.232;27.972;2023-02-10T04:07:30;45279.47;;;-143.84;64.80
6032;BME280;3044;43.232;27.972;2023-02-10T04:09:57;45277.56;;;-143.84;64.32
6032;BME280;3044;43.232;27.972;2023-02-10T04:12:26;45296.63;;;-143.84;64.50
6032;BME280;3044;43.232;27.972;2023-02-10T04:14:53;45268.06;;;-143.84;64.16
6032;BME280;3044;43.232;27.972;2023-02-10T04:17:20;45260.44;;;-143.84;63.71
6032;BME280;3044;43.232;27.972;2023-02-10T04:19:47;45287.09;;;-143.84;64.70
6032;BME280;3044;43.232;27.972;2023-02-10T04:22:14;45273.78;;;-143.84;63.38
6032;BME280;3044;43.232;27.972;2023-02-10T04:24:41;45292.81;;;-143.84;62.69
6032;BME280;3044;43.232;27.972;2023-02-10T04:27:09;45285.19;;;-143.84;62.06
6032;BME280;3044;43.232;27.972;2023-02-10T04:29:37;45273.78;;;-143.84;62.08
6032;BME280;3044;43.232;27.972;2023-02-10T04:32:06;45296.63;;;-143.84;61.53
6032;BME280;3044;43.232;27.972;2023-02-10T04:34:33;45273.78;;;-143.84;61.27
6032;BME280;3044;43.232;27.972;2023-02-10T04:37:01;45269.97;;;-143.84;61.27
6032;BME280;3044;43.232;27.972;2023-02-10T04:39:28;45271.88;;;-143.84;61.00
6032;BME280;3044;43.232;27.972;2023-02-10T04:41:55;45308.03;;;-143.84;60.40
6032;BME280;3044;43.232;27.972;2023-02-10T04:44:22;45266.16;;;-143.84;60.40
6032;BME280;3044;43.232;27.972;2023-02-10T04:46:51;45287.09;;;-143.84;60.14
6032;BME280;3044;43.232;27.972;2023-02-10T04:49:18;45279.47;;;-143.84;59.05
6032;BME280;3044;43.232;27.972;2023-02-10T04:51:45;45296.63;;;-143.84;58.84
6032;BME280;3044;43.232;27.972;2023-02-10T04:54:13;45294.72;;;-143.84;58.71
6032;BME280;3044;43.232;27.972;2023-02-10T04:56:42;45283.28;;;-143.84;58.36
6032;BME280;3044;43.232;27.972;2023-02-10T04:59:09;45281.38;;;-143.84;58.25
6032;BME280;3044;43.232;27.972;2023-02-10T05:01:36;45277.56;;;-143.84;58.47
6032;BME280;3044;43.232;27.972;2023-02-10T05:04:05;45289.00;;;-143.84;58.62
6032;BME280;3044;43.232;27.972;2023-02-10T05:06:32;45323.28;;;-143.84;58.01
6032;BME280;3044;43.232;27.972;2023-02-10T05:09:00;45275.66;;;-143.84;57.91
6032;BME280;3044;43.232;27.972;2023-02-10T05:11:27;45292.81;;;-143.84;58.13
6032;BME280;3044;43.232;27.972;2023-02-10T05:13:54;45289.00;;;-143.84;58.47
6032;BME280;3044;43.232;27.972;2023-02-10T05:16:21;45271.88;;;-143.84;57.98
6032;BME280;3044;43.232;27.972;2023-02-10T05:18:48;45268.06;;;-143.84;58.00
6032;BME280;3044;43.232;27.972;2023-02-10T05:21:17;45281.38;;;-143.84;57.67
6032;BME280;3044;43.232;27.972;2023-02-10T05:23:44;45258.53;;;-143.84;57.76
6032;BME280;3044;43.232;27.972;2023-02-10T05:26:11;45309.94;;;-143.84;57.80
6032;BME280;3044;43.232;27.972;2023-02-10T05:28:38;45311.84;;;-143.84;57.20
6032;BME280;3044;43.232;27.972;2023-02-10T05:31:05;45281.38;;;-143.84;56.89
6032;BME280;3044;43.232;27.972;2023-02-10T05:33:34;45260.44;;;-143.84;56.44
6032;BME280;3044;43.232;27.972;2023-02-10T05:36:01;45279.47;;;-143.84;56.64
6032;BME280;3044;43.232;27.972;2023-02-10T05:38:30;45264.25;;;-143.84;56.15
6032;BME280;3044;43.232;27.972;2023-02-10T05:40:57;45271.88;;;-143.84;55.85
6032;BME280;3044;43.232;27.972;2023-02-10T05:43:24;45228.06;;;-143.84;55.51
6032;BME280;3044;43.232;27.972;2023-02-10T05:45:51;45289.00;;;-143.84;55.47
6032;BME280;3044;43.232;27.972;2023-02-10T05:48:18;45269.97;;;-143.84;55.02
6032;BME280;3044;43.232;27.972;2023-02-10T05:50:50;45262.34;;;-143.84;55.06
6032;BME280;3044;43.232;27.972;2023-02-10T05:53:17;45264.25;;;-143.84;54.06
6032;BME280;3044;43.232;27.972;2023-02-10T05:55:46;45268.06;;;-143.84;54.22
6032;BME280;3044;43.232;27.972;2023-02-10T05:58:14;45292.81;;;-143.84;53.96
6032;BME280;3044;43.232;27.972;2023-02-10T06:00:41;45262.34;;;-143.84;54.06
6032;BME280;3044;43.232;27.972;2023-02-10T06:03:08;45329.00;;;-143.84;53.71
6032;BME280;3044;43.232;27.972;2023-02-10T06:05:35;45289.00;;;-143.84;52.74
6032;BME280;3044;43.232;27.972;2023-02-10T06:08:02;45285.19;;;-143.84;52.01
6032;BME280;3044;43.232;27.972;2023-02-10T06:10:30;45296.63;;;-143.84;51.60
6032;BME280;3044;43.232;27.972;2023-02-10T06:12:58;45264.25;;;-143.84;50.74
6032;BME280;3044;43.232;27.972;2023-02-10T06:15:25;45273.78;;;-143.84;50.19
6032;BME280;3044;43.232;27.972;2023-02-10T06:17:52;45292.81;;;-143.84;49.99
6032;BME280;3044;43.232;27.972;2023-02-10T06:20:20;45269.97;;;-143.84;50.15
6032;BME280;3044;43.232;27.972;2023-02-10T06:22:47;45279.47;;;-143.84;49.83
6032;BME280;3044;43.232;27.972;2023-02-10T06:25:14;45298.53;;;-143.84;49.48
6032;BME280;3044;43.232;27.972;2023-02-10T06:27:41;45254.72;;;-143.84;49.39
6032;BME280;3044;43.232;27.972;2023-02-10T06:30:12;45260.44;;;-143.84;48.75
6032;BME280;3044;43.232;27.972;2023-02-10T06:32:39;45266.16;;;-143.84;47.61
6032;BME280;3044;43.232;27.972;2023-02-10T06:35:08;45275.66;;;-143.84;47.26
6032;BME280;3044;43.232;27.972;2023-02-10T06:37:35;45231.88;;;-143.84;46.36
6032;BME280;3044;43.232;27.972;2023-02-10T06:40:02;45275.66;;;-143.84;45.43
6032;BME280;3044;43.232;27.972;2023-02-10T06:42:30;45237.59;;;-143.84;44.70
6032;BME280;3044;43.232;27.972;2023-02-10T06:44:57;45252.81;;;-143.84;44.01
6032;BME280;3044;43.232;27.972;2023-02-10T06:47:25;45247.09;;;-143.84;43.85
6032;BME280;3044;43.232;27.972;2023-02-10T06:49:52;45245.19;;;-143.84;43.02
6032;BME280;3044;43.232;27.972;2023-02-10T06:52:19;45226.16;;;-143.84;42.98
6032;BME280;3044;43.232;27.972;2023-02-10T06:54:46;45229.97;;;-143.84;42.66
6032;BME280;3044;43.232;27.972;2023-02-10T06:57:14;45250.91;;;-143.84;41.96
6032;BME280;3044;43.232;27.972;2023-02-10T06:59:41;45249.00;;;-143.84;41.58
6032;BME280;3044;43.232;27.972;2023-02-10T07:02:08;45260.44;;;-143.84;41.37
6032;BME280;3044;43.232;27.972;2023-02-10T07:04:36;45250.91;;;-143.84;41.25
6032;BME280;3044;43.232;27.972;2023-02-10T07:07:04;45220.44;;;-143.84;40.77
6032;BME280;3044;43.232;27.972;2023-02-10T07:09:32;45237.59;;;-143.84;41.18
6032;BME280;3044;43.232;27.972;2023-02-10T07:11:59;45220.44;;;-143.84;41.01
6032;BME280;3044;43.232;27.972;2023-02-10T07:14:26;45235.69;;;-143.84;40.85
6032;BME280;3044;43.232;27.972;2023-02-10T07:16:53;45258.53;;;-143.84;40.93
6032;BME280;3044;43.232;27.972;2023-02-10T07:19:20;45239.50;;;-143.84;41.16
6032;BME280;3044;43.232;27.972;2023-02-10T07:21:49;45250.91;;;-143.84;41.45
6032;BME280;3044;43.232;27.972;2023-02-10T07:24:16;45214.72;;;-143.84;41.10
6032;BME280;3044;43.232;27.972;2023-02-10T07:26:43;45247.09;;;-143.84;40.97
6032;BME280;3044;43.232;27.972;2023-02-10T07:29:11;45239.50;;;-143.84;40.76
6032;BME280;3044;43.232;27.972;2023-02-10T07:31:38;45216.63;;;-143.84;40.78
6032;BME280;3044;43.232;27.972;2023-02-10T07:34:05;45241.41;;;-143.84;40.58
6032;BME280;3044;43.232;27.972;2023-02-10T07:36:32;45235.69;;;-143.84;39.92
6032;BME280;3044;43.232;27.972;2023-02-10T07:39:01;45235.69;;;-143.84;40.50
6032;BME280;3044;43.232;27.972;2023-02-10T07:41:28;45258.53;;;-143.84;40.14
6032;BME280;3044;43.232;27.972;2023-02-10T07:43:55;45229.97;;;-143.84;40.16
6032;BME280;3044;43.232;27.972;2023-02-10T07:46:22;45224.25;;;-143.84;40.65
6032;BME280;3044;43.232;27.972;2023-02-10T07:48:49;45229.97;;;-143.84;40.85
6032;BME280;3044;43.232;27.972;2023-02-10T07:51:16;45237.59;;;-143.84;41.39
6032;BME280;3044;43.232;27.972;2023-02-10T07:53:43;45243.31;;;-143.84;40.93
6032;BME280;3044;43.232;27.972;2023-02-10T07:56:12;45226.16;;;-143.84;41.02
6032;BME280;3044;43.232;27.972;2023-02-10T07:58:39;45216.63;;;-143.84;41.14
6032;BME280;3044;43.232;27.972;2023-02-10T08:01:07;45228.06;;;-143.84;40.91
6032;BME280;3044;43.232;27.972;2023-02-10T08:03:34;45229.97;;;-143.84;41.12
6032;BME280;3044;43.232;27.972;2023-02-10T08:06:02;45249.00;;;-143.84;40.94
6032;BME280;3044;43.232;27.972;2023-02-10T08:08:29;45237.59;;;-143.84;40.11
6032;BME280;3044;43.232;27.972;2023-02-10T08:10:56;45209.03;;;-143.84;39.67
6032;BME280;3044;43.232;27.972;2023-02-10T08:13:25;45226.16;;;-143.84;39.51
6032;BME280;3044;43.232;27.972;2023-02-10T08:15:53;45228.06;;;-143.84;39.27
6032;BME280;3044;43.232;27.972;2023-02-10T08:18:20;45218.53;;;-143.84;39.21
6032;BME280;3044;43.232;27.972;2023-02-10T08:20:47;45210.94;;;-143.84;39.03
6032;BME280;3044;43.232;27.972;2023-02-10T08:23:16;45229.97;;;-143.84;39.46
6032;BME280;3044;43.232;27.972;2023-02-10T08:25:44;45209.03;;;-143.84;39.28
6032;BME280;3044;43.232;27.972;2023-02-10T08:28:11;45188.06;;;-143.84;38.90
6032;BME280;3044;43.232;27.972;2023-02-10T08:30:40;45222.34;;;-143.84;39.22
6032;BME280;3044;43.232;27.972;2023-02-10T08:33:07;45214.72;;;-143.84;39.86
6032;BME280;3044;43.232;27.972;2023-02-10T08:35:35;45212.84;;;-143.84;39.06
6032;BME280;3044;43.232;27.972;2023-02-10T08:38:03;45239.50;;;-143.84;39.04
6032;BME280;3044;43.232;27.972;2023-02-10T08:40:30;45207.13;;;-143.84;39.44
6032;BME280;3044;43.232;27.972;2023-02-10T08:42:58;45258.53;;;-143.84;39.61
6032;BME280;3044;43.232;27.972;2023-02-10T08:45:25;45235.69;;;-143.84;39.71
6032;BME280;3044;43.232;27.972;2023-02-10T08:47:54;45237.59;;;-143.84;38.94
6032;BME280;3044;43.232;27.972;2023-02-10T08:50:21;45218.53;;;-143.84;39.46
6032;BME280;3044;43.232;27.972;2023-02-10T08:52:49;45218.53;;;-143.84;39.38
6032;BME280;3044;43.232;27.972;2023-02-10T08:55:16;45228.06;;;-143.84;40.13
6032;BME280;3044;43.232;27.972;2023-02-10T08:57:43;45250.91;;;-143.84;39.66
6032;BME280;3044;43.232;27.972;2023-02-10T09:00:11;45209.03;;;-143.84;39.00
6032;BME280;3044;43.232;27.972;2023-02-10T09:02:38;45197.59;;;-143.84;38.26
6032;BME280;3044;43.232;27.972;2023-02-10T09:05:07;45235.69;;;-143.84;38.32
6032;BME280;3044;43.232;27.972;2023-02-10T09:07:34;45220.44;;;-143.84;37.47
6032;BME280;3044;43.232;27.972;2023-02-10T09:10:01;45201.41;;;-143.84;37.30
6032;BME280;3044;43.232;27.972;2023-02-10T09:12:29;45167.13;;;-143.84;36.99
6032;BME280;3044;43.232;27.972;2023-02-10T09:14:56;45209.03;;;-143.84;36.93
6032;BME280;3044;43.232;27.972;2023-02-10T09:17:23;45191.88;;;-143.84;36.77
6032;BME280;3044;43.232;27.972;2023-02-10T09:19:50;45201.41;;;-143.84;36.16
6032;BME280;3044;43.232;27.972;2023-02-10T09:22:18;45193.78;;;-143.84;36.65
6032;BME280;3044;43.232;27.972;2023-02-10T09:24:45;45220.44;;;-143.84;36.35
6032;BME280;3044;43.232;27.972;2023-02-10T09:27:15;45191.88;;;-143.84;36.34
6032;BME280;3044;43.232;27.972;2023-02-10T09:29:42;45178.56;;;-143.84;35.69
6032;BME280;3044;43.232;27.972;2023-02-10T09:32:09;45176.66;;;-143.84;34.99
6032;BME280;3044;43.232;27.972;2023-02-10T09:34:37;45174.75;;;-143.84;36.43
6032;BME280;3044;43.232;27.972;2023-02-10T09:37:05;45210.94;;;-143.84;35.47
6032;BME280;3044;43.232;27.972;2023-02-10T09:39:34;45203.31;;;-143.84;35.56
6032;BME280;3044;43.232;27.972;2023-02-10T09:42:09;45170.94;;;-143.84;35.12
6032;BME280;3044;43.232;27.972;2023-02-10T09:44:38;45186.16;;;-143.84;34.12
6032;BME280;3044;43.232;27.972;2023-02-10T09:47:36;45148.09;;;-143.84;33.60
6032;BME280;3044;43.232;27.972;2023-02-10T09:50:30;45199.50;;;-143.84;33.91
6032;BME280;3044;43.232;27.972;2023-02-10T09:53:04;45201.41;;;-143.84;33.43
6032;BME280;3044;43.232;27.972;2023-02-10T09:55:39;45161.41;;;-143.84;33.23
6032;BME280;3044;43.232;27.972;2023-02-10T09:58:24;45186.16;;;-143.84;33.07
6032;BME280;3044;43.232;27.972;2023-02-10T10:00:57;45176.66;;;-143.84;32.63
6032;BME280;3044;43.232;27.972;2023-02-10T10:03:28;45150.00;;;-143.84;32.06
6032;BME280;3044;43.232;27.972;2023-02-10T10:06:06;45186.16;;;-143.84;32.00
6032;BME280;3044;43.232;27.972;2023-02-10T10:08:45;45188.06;;;-143.84;32.14
6032;BME280;3044;43.232;27.972;2023-02-10T10:11:23;45186.16;;;-143.84;31.73
6032;BME280;3044;43.232;27.972;2023-02-10T10:13:51;45186.16;;;-143.84;31.63
6032;BME280;3044;43.232;27.972;2023-02-10T10:16:25;45159.50;;;-143.84;31.71
6032;BME280;3044;43.232;27.972;2023-02-10T10:19:05;45167.13;;;-143.84;31.09
6032;BME280;3044;43.232;27.972;2023-02-10T10:21:45;45189.97;;;-143.84;31.01
6032;BME280;3044;43.232;27.972;2023-02-10T10:24:24;45161.41;;;-143.84;31.11
6032;BME280;3044;43.232;27.972;2023-02-10T10:27:07;45148.09;;;-143.84;30.58
6032;BME280;3044;43.232;27.972;2023-02-10T10:29:44;45178.56;;;-143.84;30.35
6032;BME280;3044;43.232;27.972;2023-02-10T10:32:16;45153.81;;;-143.84;30.17
6032;BME280;3044;43.232;27.972;2023-02-10T10:34:50;45170.94;;;-143.84;30.40
6032;BME280;3044;43.232;27.972;2023-02-10T10:37:19;45169.03;;;-143.84;30.60
6032;BME280;3044;43.232;27.972;2023-02-10T10:39:49;45150.00;;;-143.84;30.81
6032;BME280;3044;43.232;27.972;2023-02-10T10:42:26;45148.09;;;-143.84;31.01
6032;BME280;3044;43.232;27.972;2023-02-10T10:44:59;45151.91;;;-143.84;31.12
6032;BME280;3044;43.232;27.972;2023-02-10T10:47:38;45178.56;;;-143.84;31.27
6032;BME280;3044;43.232;27.972;2023-02-10T10:50:12;45153.81;;;-143.84;30.70
6032;BME280;3044;43.232;27.972;2023-02-10T10:52:40;45138.56;;;-143.84;30.70
6032;BME280;3044;43.232;27.972;2023-02-10T10:55:12;45144.28;;;-143.84;31.12
6032;BME280;3044;43.232;27.972;2023-02-10T10:57:44;45155.69;;;-143.84;31.32
6032;BME280;3044;43.232;27.972;2023-02-10T11:00:19;45140.47;;;-143.84;30.91
6032;BME280;3044;43.232;27.972;2023-02-10T11:02:56;45136.66;;;-143.84;31.15
6032;BME280;3044;43.232;27.972;2023-02-10T11:05:27;45159.50;;;-143.84;30.76
6032;BME280;3044;43.232;27.972;2023-02-10T11:07:55;45153.81;;;-143.84;30.79
6032;BME280;3044;43.232;27.972;2023-02-10T11:10:25;45163.31;;;-143.84;30.93
6032;BME280;3044;43.232;27.972;2023-02-10T11:12:55;45148.09;;;-143.84;31.16
6032;BME280;3044;43.232;27.972;2023-02-10T11:15:30;45146.19;;;-143.84;30.67
6032;BME280;3044;43.232;27.972;2023-02-10T11:17:58;45130.94;;;-143.84;30.85
6032;BME280;3044;43.232;27.972;2023-02-10T11:20:28;45172.84;;;-143.84;30.56
6032;BME280;3044;43.232;27.972;2023-02-10T11:22:58;45144.28;;;-143.84;30.75
6032;BME280;3044;43.232;27.972;2023-02-10T11:25:29;45151.91;;;-143.84;30.52
6032;BME280;3044;43.232;27.972;2023-02-10T11:27:58;45157.59;;;-143.84;31.39
6032;BME280;3044;43.232;27.972;2023-02-10T11:30:27;45180.47;;;-143.84;31.95
6032;BME280;3044;43.232;27.972;2023-02-10T11:32:56;45170.94;;;-143.84;31.68
6032;BME280;3044;43.232;27.972;2023-02-10T11:35:24;45142.38;;;-143.84;31.73
6032;BME280;3044;43.232;27.972;2023-02-10T11:37:53;45140.47;;;-143.84;31.83
6032;BME280;3044;43.232;27.972;2023-02-10T11:40:23;45161.41;;;-143.84;31.82
6032;BME280;3044;43.232;27.972;2023-02-10T11:42:52;45140.47;;;-143.84;32.83
6032;BME280;3044;43.232;27.972;2023-02-10T11:45:23;45186.16;;;-143.84;32.18
6032;BME280;3044;43.232;27.972;2023-02-10T11:47:59;45172.84;;;-143.84;32.04
6032;BME280;3044;43.232;27.972;2023-02-10T11:50:30;45163.31;;;-143.84;31.89
6032;BME280;3044;43.232;27.972;2023-02-10T11:52:57;45189.97;;;-143.84;31.89
6032;BME280;3044;43.232;27.972;2023-02-10T11:55:33;45144.28;;;-143.84;32.80
6032;BME280;3044;43.232;27.972;2023-02-10T11:58:20;45165.22;;;-143.84;33.57
6032;BME280;3044;43.232;27.972;2023-02-10T12:01:16;45151.91;;;-143.84;33.66
6032;BME280;3044;43.232;27.972;2023-02-10T12:04:08;45153.81;;;-143.84;32.89
6032;BME280;3044;43.232;27.972;2023-02-10T12:06:43;45151.91;;;-143.84;32.91
6032;BME280;3044;43.232;27.972;2023-02-10T12:09:20;45163.31;;;-143.84;32.49
6032;BME280;3044;43.232;27.972;2023-02-10T12:11:57;45170.94;;;-143.84;32.58
6032;BME280;3044;43.232;27.972;2023-02-10T12:17:30;45178.56;;;-143.84;33.73
6032;BME280;3044;43.232;27.972;2023-02-10T12:20:17;45167.13;;;-143.84;32.44
6032;BME280;3044;43.232;27.972;2023-02-10T12:23:02;45161.41;;;-143.84;34.08
6032;BME280;3044;43.232;27.972;2023-02-10T12:25:37;45151.91;;;-143.84;33.41
6032;BME280;3044;43.232;27.972;2023-02-10T12:28:11;45195.69;;;-143.84;33.63
6032;BME280;3044;43.232;27.972;2023-02-10T12:30:45;45186.16;;;-143.84;34.20
6032;BME280;3044;43.232;27.972;2023-02-10T12:33:40;45167.13;;;-143.84;34.70
6032;BME280;3044;43.232;27.972;2023-02-10T12:36:15;45146.19;;;-143.84;33.97
6032;BME280;3044;43.232;27.972;2023-02-10T12:39:00;45170.94;;;-143.84;34.31
6032;BME280;3044;43.232;27.972;2023-02-10T12:41:39;45165.22;;;-143.84;34.02
6032;BME280;3044;43.232;27.972;2023-02-10T12:44:25;45161.41;;;-143.84;34.14
6032;BME280;3044;43.232;27.972;2023-02-10T12:47:04;45155.69;;;-143.84;33.52
6032;BME280;3044;43.232;27.972;2023-02-10T12:49:50;45170.94;;;-143.84;33.35
6032;BME280;3044;43.232;27.972;2023-02-10T12:52:23;45161.41;;;-143.84;32.83
6032;BME280;3044;43.232;27.972;2023-02-10T12:54:56;45146.19;;;-143.84;32.60
6032;BME280;3044;43.232;27.972;2023-02-10T12:57:27;45161.41;;;-143.84;32.97
6032;BME280;3044;43.232;27.972;2023-02-10T12:59:59;45178.56;;;-143.84;33.74
6032;BME280;3044;43.232;27.972;2023-02-10T13:02:33;45169.03;;;-143.84;33.37
6032;BME280;3044;43.232;27.972;2023-02-10T13:05:08;45159.50;;;-143.84;32.69
6032;BME280;3044;43.232;27.972;2023-02-10T13:07:43;45170.94;;;-143.84;33.14
6032;BME280;3044;43.232;27.972;2023-02-10T13:10:22;45163.31;;;-143.84;33.67
6032;BME280;3044;43.232;27.972;2023-02-10T13:12:55;45155.69;;;-143.84;33.64
6032;BME280;3044;43.232;27.972;2023-02-10T13:15:27;45184.25;;;-143.84;33.42
6032;BME280;3044;43.232;27.972;2023-02-10T13:17:56;45188.06;;;-143.84;33.48
6032;BME280;3044;43.232;27.972;2023-02-10T13:20:34;45180.47;;;-143.84;33.00
6032;BME280;3044;43.232;27.972;2023-02-10T13:23:16;45188.06;;;-143.84;33.49